createdAt,value
2017-09-30T00:00:27.454Z,1005.34
2017-09-30T00:01:08.017Z,1005.36
2017-09-30T00:01:48.578Z,1005.41
2017-09-30T00:02:29.375Z,1005.37
2017-09-30T00:03:09.992Z,1005.34
2017-09-30T00:03:50.589Z,1005.41
2017-09-30T00:04:31.224Z,1005.39
2017-09-30T00:05:11.692Z,1005.39
2017-09-30T00:05:52.267Z,1005.39
2017-09-30T00:06:32.837Z,1005.4
2017-09-30T00:07:13.526Z,1005.42
2017-09-30T00:07:54.115Z,1005.35
2017-09-30T00:08:34.827Z,1005.37
2017-09-30T00:09:15.583Z,1005.36
2017-09-30T00:09:56.401Z,1005.35
2017-09-30T00:10:38.109Z,1005.33
2017-09-30T00:11:20.640Z,1005.39
2017-09-30T00:12:01.204Z,1005.41
2017-09-30T00:12:41.862Z,1005.42
2017-09-30T00:13:22.499Z,1005.42
2017-09-30T00:14:03.137Z,1005.38
2017-09-30T00:14:43.651Z,1005.41
2017-09-30T00:15:24.181Z,1005.41
2017-09-30T00:16:04.821Z,1005.37
2017-09-30T00:16:45.445Z,1005.45
2017-09-30T00:17:26.033Z,1005.39
2017-09-30T00:18:06.636Z,1005.38
2017-09-30T00:18:47.214Z,1005.35
2017-09-30T00:19:27.882Z,1005.35
2017-09-30T00:20:08.422Z,1005.37
2017-09-30T00:20:49.010Z,1005.36
2017-09-30T00:21:29.642Z,1005.38
2017-09-30T00:24:00.660Z,1005.4
2017-09-30T00:24:41.102Z,1005.41
2017-09-30T00:25:21.677Z,1005.41
2017-09-30T00:26:02.229Z,1005.38
2017-09-30T00:26:42.781Z,1005.4
2017-09-30T00:27:23.481Z,1005.36
2017-09-30T00:28:04.003Z,1005.37
2017-09-30T00:28:44.507Z,1005.35
2017-09-30T00:29:25.057Z,1005.39
2017-09-30T00:30:05.633Z,1005.35
2017-09-30T00:30:46.097Z,1005.31
2017-09-30T00:31:26.676Z,1005.34
2017-09-30T00:32:07.317Z,1005.36
2017-09-30T00:32:47.871Z,1005.39
2017-09-30T00:33:28.456Z,1005.35
2017-09-30T00:34:08.985Z,1005.36
2017-09-30T00:34:49.665Z,1005.37
2017-09-30T00:35:30.226Z,1005.36
2017-09-30T00:36:10.687Z,1005.37
2017-09-30T00:36:51.222Z,1005.36
2017-09-30T00:37:31.801Z,1005.37
2017-09-30T00:38:12.426Z,1005.36
2017-09-30T00:38:52.893Z,1005.34
2017-09-30T00:39:33.555Z,1005.36
2017-09-30T00:40:14.035Z,1005.39
2017-09-30T00:40:54.634Z,1005.36
2017-09-30T00:41:35.196Z,1005.35
2017-09-30T00:42:15.744Z,1005.32
2017-09-30T00:42:56.305Z,1005.31
2017-09-30T00:43:36.804Z,1005.34
2017-09-30T00:44:17.323Z,1005.37
2017-09-30T00:44:57.948Z,1005.33
2017-09-30T00:45:38.609Z,1005.36
2017-09-30T00:46:22.040Z,1005.37
2017-09-30T00:47:02.546Z,1005.39
2017-09-30T00:47:43.120Z,1005.34
2017-09-30T00:48:23.674Z,1005.35
2017-09-30T00:49:04.288Z,1005.32
2017-09-30T00:49:44.900Z,1005.34
2017-09-30T00:50:25.507Z,1005.37
2017-09-30T00:51:05.992Z,1005.37
2017-09-30T00:51:46.522Z,1005.38
2017-09-30T00:52:27.074Z,1005.37
2017-09-30T00:53:07.622Z,1005.37
2017-09-30T00:53:48.482Z,1005.37
2017-09-30T00:54:29.119Z,1005.36
2017-09-30T00:55:10.349Z,1005.35
2017-09-30T00:55:50.914Z,1005.38
2017-09-30T00:56:31.473Z,1005.35
2017-09-30T00:57:12.034Z,1005.35
2017-09-30T00:57:52.543Z,1005.36
2017-09-30T00:58:33.055Z,1005.34
2017-09-30T00:59:13.616Z,1005.38
2017-09-30T00:59:54.156Z,1005.41
2017-09-30T01:00:34.708Z,1005.34
2017-09-30T01:01:15.248Z,1005.34
2017-09-30T01:01:55.799Z,1005.32
2017-09-30T01:02:36.324Z,1005.3
2017-09-30T01:03:16.845Z,1005.3
2017-09-30T01:03:57.377Z,1005.28
2017-09-30T01:04:37.919Z,1005.28
2017-09-30T01:05:18.476Z,1005.23
2017-09-30T01:05:59.018Z,1005.24
2017-09-30T01:06:39.623Z,1005.24
2017-09-30T01:07:20.113Z,1005.26
2017-09-30T01:08:00.657Z,1005.23
2017-09-30T01:08:41.191Z,1005.23
2017-09-30T01:09:21.758Z,1005.25
2017-09-30T01:10:02.308Z,1005.24
2017-09-30T01:10:42.824Z,1005.24
2017-09-30T01:11:23.398Z,1005.23
2017-09-30T01:12:03.958Z,1005.21
2017-09-30T01:12:44.483Z,1005.2
2017-09-30T01:13:24.993Z,1005.24
2017-09-30T01:14:05.515Z,1005.24
2017-09-30T01:14:46.098Z,1005.24
2017-09-30T01:15:26.641Z,1005.23
2017-09-30T01:16:07.160Z,1005.23
2017-09-30T01:16:47.829Z,1005.25
2017-09-30T01:17:28.404Z,1005.23
2017-09-30T01:18:08.921Z,1005.23
2017-09-30T01:18:49.478Z,1005.22
2017-09-30T01:19:30.022Z,1005.24
2017-09-30T01:20:10.572Z,1005.21
2017-09-30T01:20:51.146Z,1005.22
2017-09-30T01:21:31.621Z,1005.24
2017-09-30T01:22:12.169Z,1005.21
2017-09-30T01:22:52.697Z,1005.2
2017-09-30T01:23:33.240Z,1005.22
2017-09-30T01:24:13.804Z,1005.22
2017-09-30T01:24:54.353Z,1005.19
2017-09-30T01:25:34.824Z,1005.17
2017-09-30T01:26:15.374Z,1005.13
2017-09-30T01:26:55.969Z,1005.09
2017-09-30T01:27:36.538Z,1005.11
2017-09-30T01:28:17.072Z,1005.11
2017-09-30T01:28:57.709Z,1005.13
2017-09-30T01:29:38.178Z,1005.09
2017-09-30T01:30:18.675Z,1005.12
2017-09-30T01:30:59.241Z,1005.1
2017-09-30T01:31:39.748Z,1005.07
2017-09-30T01:32:20.302Z,1005.05
2017-09-30T01:33:00.853Z,1005.05
2017-09-30T01:33:41.451Z,1005.06
2017-09-30T01:34:21.947Z,1005.09
2017-09-30T01:35:02.491Z,1005.03
2017-09-30T01:35:43.046Z,1005.04
2017-09-30T01:36:23.593Z,1005.04
2017-09-30T01:37:04.120Z,1005.05
2017-09-30T01:37:44.662Z,1004.99
2017-09-30T01:38:25.246Z,1005.04
2017-09-30T01:39:05.759Z,1005.03
2017-09-30T01:39:46.292Z,1005.04
2017-09-30T01:40:26.815Z,1004.96
2017-09-30T01:41:07.366Z,1005
2017-09-30T01:41:47.895Z,1005
2017-09-30T01:42:28.487Z,1004.98
2017-09-30T01:43:09.013Z,1004.96
2017-09-30T01:43:49.584Z,1004.92
2017-09-30T01:44:30.138Z,1004.91
2017-09-30T01:45:10.691Z,1004.95
2017-09-30T01:45:51.229Z,1004.9
2017-09-30T01:46:31.818Z,1004.94
2017-09-30T01:47:12.405Z,1004.9
2017-09-30T01:47:53.120Z,1004.92
2017-09-30T01:48:33.677Z,1004.88
2017-09-30T01:49:14.222Z,1004.87
2017-09-30T01:49:54.817Z,1004.88
2017-09-30T01:50:35.310Z,1004.86
2017-09-30T01:51:15.971Z,1004.82
2017-09-30T01:51:56.509Z,1004.85
2017-09-30T01:52:37.085Z,1004.78
2017-09-30T01:53:17.660Z,1004.74
2017-09-30T01:53:58.263Z,1004.8
2017-09-30T01:54:38.826Z,1004.76
2017-09-30T01:55:19.414Z,1004.79
2017-09-30T01:55:59.912Z,1004.73
2017-09-30T01:56:40.452Z,1004.7
2017-09-30T01:57:21.620Z,1004.71
2017-09-30T01:58:02.345Z,1004.72
2017-09-30T01:58:42.876Z,1004.68
2017-09-30T01:59:23.446Z,1004.64
2017-09-30T02:00:03.962Z,1004.66
2017-09-30T02:00:44.584Z,1004.66
2017-09-30T02:01:25.120Z,1004.68
2017-09-30T02:02:05.733Z,1004.65
2017-09-30T02:02:46.239Z,1004.64
2017-09-30T02:03:26.755Z,1004.66
2017-09-30T02:04:07.294Z,1004.63
2017-09-30T02:04:47.853Z,1004.66
2017-09-30T02:05:28.388Z,1004.62
2017-09-30T02:06:08.988Z,1004.67
2017-09-30T02:06:49.547Z,1004.67
2017-09-30T02:07:30.027Z,1004.66
2017-09-30T02:09:44.769Z,1004.6
2017-09-30T02:10:25.047Z,1004.63
2017-09-30T02:11:05.605Z,1004.6
2017-09-30T02:11:46.139Z,1004.59
2017-09-30T02:12:26.674Z,1004.57
2017-09-30T02:13:07.204Z,1004.6
2017-09-30T02:13:47.728Z,1004.63
2017-09-30T02:14:28.269Z,1004.59
2017-09-30T02:15:08.817Z,1004.59
2017-09-30T02:15:49.983Z,1004.62
2017-09-30T02:16:30.739Z,1004.61
2017-09-30T02:17:11.237Z,1004.6
2017-09-30T02:17:51.985Z,1004.6
2017-09-30T02:18:32.498Z,1004.6
2017-09-30T02:19:13.051Z,1004.59
2017-09-30T02:19:53.847Z,1004.54
2017-09-30T02:20:34.239Z,1004.54
2017-09-30T02:21:15.165Z,1004.59
2017-09-30T02:21:55.726Z,1004.56
2017-09-30T02:22:36.242Z,1004.57
2017-09-30T02:23:16.877Z,1004.54
2017-09-30T02:23:57.413Z,1004.55
2017-09-30T02:24:37.949Z,1004.57
2017-09-30T02:25:18.569Z,1004.55
2017-09-30T02:25:59.072Z,1004.53
2017-09-30T02:26:39.613Z,1004.49
2017-09-30T02:27:20.273Z,1004.48
2017-09-30T02:28:00.760Z,1004.49
2017-09-30T02:28:41.403Z,1004.5
2017-09-30T02:29:22.087Z,1004.49
2017-09-30T02:30:02.546Z,1004.44
2017-09-30T02:30:43.068Z,1004.43
2017-09-30T02:31:23.641Z,1004.47
2017-09-30T02:32:04.183Z,1004.44
2017-09-30T02:32:44.720Z,1004.43
2017-09-30T02:33:25.369Z,1004.44
2017-09-30T02:34:05.818Z,1004.41
2017-09-30T02:34:46.469Z,1004.42
2017-09-30T02:35:27.032Z,1004.42
2017-09-30T02:36:07.748Z,1004.44
2017-09-30T02:36:48.432Z,1004.44
2017-09-30T02:37:28.938Z,1004.48
2017-09-30T02:38:09.471Z,1004.45
2017-09-30T02:38:50.037Z,1004.5
2017-09-30T02:39:30.612Z,1004.45
2017-09-30T02:40:11.159Z,1004.48
2017-09-30T02:40:51.721Z,1004.47
2017-09-30T02:41:32.252Z,1004.49
2017-09-30T02:42:12.773Z,1004.46
2017-09-30T02:42:53.368Z,1004.47
2017-09-30T02:43:33.932Z,1004.47
2017-09-30T02:44:14.464Z,1004.48
2017-09-30T02:44:54.998Z,1004.45
2017-09-30T02:45:35.542Z,1004.46
2017-09-30T02:46:16.132Z,1004.42
2017-09-30T02:46:56.656Z,1004.45
2017-09-30T02:47:37.155Z,1004.47
2017-09-30T02:48:17.778Z,1004.46
2017-09-30T02:48:58.332Z,1004.44
2017-09-30T02:49:38.865Z,1004.5
2017-09-30T02:50:19.418Z,1004.49
2017-09-30T02:50:59.947Z,1004.5
2017-09-30T02:51:40.474Z,1004.49
2017-09-30T02:52:21.076Z,1004.47
2017-09-30T02:53:01.616Z,1004.5
2017-09-30T02:53:42.167Z,1004.53
2017-09-30T02:54:22.716Z,1004.5
2017-09-30T02:55:03.320Z,1004.55
2017-09-30T02:55:43.840Z,1004.5
2017-09-30T02:56:24.374Z,1004.52
2017-09-30T02:57:04.977Z,1004.51
2017-09-30T02:57:45.595Z,1004.52
2017-09-30T02:58:26.124Z,1004.47
2017-09-30T02:59:06.627Z,1004.49
2017-09-30T02:59:47.185Z,1004.45
2017-09-30T03:00:27.714Z,1004.46
2017-09-30T03:01:08.478Z,1004.44
2017-09-30T03:01:48.982Z,1004.44
2017-09-30T03:02:29.532Z,1004.42
2017-09-30T03:03:10.043Z,1004.41
2017-09-30T03:03:50.608Z,1004.42
2017-09-30T03:04:31.190Z,1004.36
2017-09-30T03:05:11.663Z,1004.33
2017-09-30T03:05:52.208Z,1004.35
2017-09-30T03:06:32.714Z,1004.35
2017-09-30T03:07:13.229Z,1004.3
2017-09-30T03:07:53.798Z,1004.36
2017-09-30T03:08:34.367Z,1004.29
2017-09-30T03:09:14.937Z,1004.3
2017-09-30T03:09:55.498Z,1004.31
2017-09-30T03:10:35.977Z,1004.33
2017-09-30T03:11:16.585Z,1004.31
2017-09-30T03:11:57.102Z,1004.32
2017-09-30T03:12:37.706Z,1004.27
2017-09-30T03:13:18.282Z,1004.34
2017-09-30T03:13:58.842Z,1004.38
2017-09-30T03:14:39.343Z,1004.35
2017-09-30T03:15:19.852Z,1004.37
2017-09-30T03:16:00.388Z,1004.38
2017-09-30T03:16:40.996Z,1004.33
2017-09-30T03:17:21.542Z,1004.29
2017-09-30T03:18:02.073Z,1004.31
2017-09-30T03:18:42.649Z,1004.28
2017-09-30T03:19:23.162Z,1004.32
2017-09-30T03:20:03.766Z,1004.29
2017-09-30T03:20:44.310Z,1004.28
2017-09-30T03:21:24.853Z,1004.27
2017-09-30T03:22:05.392Z,1004.22
2017-09-30T03:22:45.908Z,1004.3
2017-09-30T03:23:26.452Z,1004.24
2017-09-30T03:24:06.989Z,1004.28
2017-09-30T03:24:47.586Z,1004.26
2017-09-30T03:25:28.128Z,1004.26
2017-09-30T03:26:08.631Z,1004.25
2017-09-30T03:26:49.409Z,1004.27
2017-09-30T03:27:29.954Z,1004.27
2017-09-30T03:28:10.601Z,1004.27
2017-09-30T03:28:51.131Z,1004.3
2017-09-30T03:29:31.627Z,1004.31
2017-09-30T03:30:12.157Z,1004.31
2017-09-30T03:30:52.710Z,1004.3
2017-09-30T03:31:33.350Z,1004.35
2017-09-30T03:32:13.827Z,1004.33
2017-09-30T03:32:54.385Z,1004.34
2017-09-30T03:33:35.045Z,1004.34
2017-09-30T03:34:15.594Z,1004.33
2017-09-30T03:34:56.593Z,1004.35
2017-09-30T03:35:37.088Z,1004.3
2017-09-30T03:36:17.643Z,1004.29
2017-09-30T03:36:58.158Z,1004.3
2017-09-30T03:37:38.720Z,1004.26
2017-09-30T03:38:19.290Z,1004.28
2017-09-30T03:38:59.827Z,1004.22
2017-09-30T03:39:40.329Z,1004.26
2017-09-30T03:40:20.860Z,1004.23
2017-09-30T03:41:01.413Z,1004.23
2017-09-30T03:41:41.952Z,1004.19
2017-09-30T03:42:22.496Z,1004.2
2017-09-30T03:43:03.007Z,1004.16
2017-09-30T03:43:43.534Z,1004.2
2017-09-30T03:44:24.048Z,1004.15
2017-09-30T03:45:04.610Z,1004.15
2017-09-30T03:45:45.177Z,1004.17
2017-09-30T03:46:25.813Z,1004.12
2017-09-30T03:47:06.294Z,1004.15
2017-09-30T03:47:46.818Z,1004.09
2017-09-30T03:48:27.402Z,1004.12
2017-09-30T03:49:07.942Z,1004.1
2017-09-30T03:49:48.451Z,1004.16
2017-09-30T03:50:28.973Z,1004.13
2017-09-30T03:51:09.524Z,1004.14
2017-09-30T03:51:50.112Z,1004.23
2017-09-30T03:52:30.656Z,1004.19
2017-09-30T03:53:11.201Z,1004.21
2017-09-30T03:55:39.966Z,1004.15
2017-09-30T03:56:20.364Z,1004.14
2017-09-30T03:57:00.905Z,1004.13
2017-09-30T03:57:41.525Z,1004.13
2017-09-30T03:58:22.103Z,1004.15
2017-09-30T03:59:02.642Z,1004.12
2017-09-30T03:59:43.199Z,1004.13
2017-09-30T04:00:23.689Z,1004.17
2017-09-30T04:01:04.259Z,1004.09
2017-09-30T04:01:44.770Z,1004.07
2017-09-30T04:02:25.352Z,1004.08
2017-09-30T04:03:05.918Z,1004.08
2017-09-30T04:03:46.480Z,1004.07
2017-09-30T04:04:27.048Z,1004.03
2017-09-30T04:05:07.575Z,1004.05
2017-09-30T04:05:48.147Z,1004.08
2017-09-30T04:06:28.749Z,1004.04
2017-09-30T04:07:09.264Z,1004.07
2017-09-30T04:07:49.891Z,1004.04
2017-09-30T04:08:30.367Z,1004
2017-09-30T04:09:10.902Z,1004.04
2017-09-30T04:09:51.438Z,1004.02
2017-09-30T04:10:31.926Z,1004.01
2017-09-30T04:11:12.467Z,1004
2017-09-30T04:11:53.041Z,1003.98
2017-09-30T04:12:33.583Z,1003.99
2017-09-30T04:13:14.126Z,1003.98
2017-09-30T04:13:54.681Z,1003.96
2017-09-30T04:14:35.233Z,1003.95
2017-09-30T04:15:15.759Z,1003.99
2017-09-30T04:15:56.306Z,1003.95
2017-09-30T04:16:36.860Z,1003.95
2017-09-30T04:17:17.405Z,1003.93
2017-09-30T04:17:57.953Z,1003.92
2017-09-30T04:18:38.529Z,1003.94
2017-09-30T04:19:19.048Z,1003.88
2017-09-30T04:19:59.563Z,1003.89
2017-09-30T04:20:40.160Z,1003.86
2017-09-30T04:21:20.709Z,1003.88
2017-09-30T04:22:01.271Z,1003.87
2017-09-30T04:22:41.809Z,1003.84
2017-09-30T04:23:22.320Z,1003.79
2017-09-30T04:24:02.868Z,1003.81
2017-09-30T04:24:43.468Z,1003.81
2017-09-30T04:25:24.045Z,1003.77
2017-09-30T04:26:04.622Z,1003.79
2017-09-30T04:26:45.085Z,1003.77
2017-09-30T04:27:25.667Z,1003.74
2017-09-30T04:28:06.181Z,1003.76
2017-09-30T04:28:46.745Z,1003.71
2017-09-30T04:29:27.327Z,1003.74
2017-09-30T04:30:07.863Z,1003.76
2017-09-30T04:30:48.441Z,1003.76
2017-09-30T04:31:29.060Z,1003.84
2017-09-30T04:32:09.623Z,1003.8
2017-09-30T04:32:50.192Z,1003.78
2017-09-30T04:33:30.741Z,1003.79
2017-09-30T04:34:11.265Z,1003.82
2017-09-30T04:34:51.836Z,1003.85
2017-09-30T04:35:32.388Z,1003.86
2017-09-30T04:36:12.915Z,1003.87
2017-09-30T04:36:53.449Z,1003.88
2017-09-30T04:37:33.981Z,1003.9
2017-09-30T04:38:14.482Z,1003.91
2017-09-30T04:38:55.099Z,1003.88
2017-09-30T04:39:35.723Z,1003.88
2017-09-30T04:40:16.176Z,1003.82
2017-09-30T04:40:56.724Z,1003.89
2017-09-30T04:41:37.275Z,1003.82
2017-09-30T04:42:17.780Z,1003.87
2017-09-30T04:42:58.326Z,1003.82
2017-09-30T04:43:38.891Z,1003.81
2017-09-30T04:44:19.368Z,1003.86
2017-09-30T04:44:59.894Z,1003.84
2017-09-30T04:45:40.496Z,1003.8
2017-09-30T04:46:20.970Z,1003.8
2017-09-30T04:48:34.593Z,1003.84
2017-09-30T04:49:14.990Z,1003.8
2017-09-30T04:49:55.579Z,1003.8
2017-09-30T04:50:36.127Z,1003.83
2017-09-30T04:51:16.666Z,1003.8
2017-09-30T04:51:57.247Z,1003.84
2017-09-30T04:52:37.744Z,1003.83
2017-09-30T04:53:18.266Z,1003.84
2017-09-30T04:53:58.845Z,1003.85
2017-09-30T04:54:39.356Z,1003.81
2017-09-30T04:55:20.081Z,1003.83
2017-09-30T04:56:00.998Z,1003.83
2017-09-30T04:56:41.548Z,1003.85
2017-09-30T04:57:22.164Z,1003.83
2017-09-30T04:58:02.655Z,1003.82
2017-09-30T04:58:43.185Z,1003.84
2017-09-30T04:59:23.659Z,1003.81
2017-09-30T05:00:04.286Z,1003.84
2017-09-30T05:00:44.822Z,1003.82
2017-09-30T05:01:25.352Z,1003.83
2017-09-30T05:02:05.940Z,1003.83
2017-09-30T05:02:46.526Z,1003.85
2017-09-30T05:03:27.123Z,1003.9
2017-09-30T05:04:07.649Z,1003.82
2017-09-30T05:04:48.181Z,1003.86
2017-09-30T05:05:28.706Z,1003.88
2017-09-30T05:06:09.312Z,1003.88
2017-09-30T05:06:49.854Z,1003.86
2017-09-30T05:07:30.419Z,1003.84
2017-09-30T05:08:10.885Z,1003.9
2017-09-30T05:08:51.437Z,1003.87
2017-09-30T05:09:32.015Z,1003.89
2017-09-30T05:10:12.605Z,1003.89
2017-09-30T05:10:53.344Z,1003.88
2017-09-30T05:11:33.760Z,1003.87
2017-09-30T05:12:14.492Z,1003.88
2017-09-30T05:12:54.880Z,1003.83
2017-09-30T05:13:35.383Z,1003.81
2017-09-30T05:14:15.926Z,1003.85
2017-09-30T05:14:56.606Z,1003.85
2017-09-30T05:15:37.184Z,1003.82
2017-09-30T05:16:17.862Z,1003.82
2017-09-30T05:16:58.388Z,1003.8
2017-09-30T05:17:38.934Z,1003.83
2017-09-30T05:18:19.498Z,1003.82
2017-09-30T05:19:00.105Z,1003.81
2017-09-30T05:19:40.626Z,1003.84
2017-09-30T05:20:21.117Z,1003.85
2017-09-30T05:21:01.653Z,1003.86
2017-09-30T05:21:42.169Z,1003.84
2017-09-30T05:22:22.771Z,1003.88
2017-09-30T05:23:03.265Z,1003.86
2017-09-30T05:23:43.827Z,1003.88
2017-09-30T05:24:24.365Z,1003.89
2017-09-30T05:25:04.911Z,1003.91
2017-09-30T05:25:45.428Z,1003.91
2017-09-30T05:26:25.992Z,1003.92
2017-09-30T05:27:06.559Z,1003.92
2017-09-30T05:27:47.109Z,1003.9
2017-09-30T05:28:27.635Z,1003.9
2017-09-30T05:29:08.195Z,1003.89
2017-09-30T05:29:48.671Z,1003.85
2017-09-30T05:30:29.229Z,1003.94
2017-09-30T05:31:09.769Z,1003.88
2017-09-30T05:31:50.298Z,1003.89
2017-09-30T05:32:30.843Z,1003.88
2017-09-30T05:33:11.402Z,1003.85
2017-09-30T05:33:52.792Z,1003.86
2017-09-30T05:34:33.329Z,1003.85
2017-09-30T05:35:13.997Z,1003.85
2017-09-30T05:35:54.625Z,1003.86
2017-09-30T05:36:35.067Z,1003.88
2017-09-30T05:37:15.864Z,1003.87
2017-09-30T05:37:56.320Z,1003.85
2017-09-30T05:38:36.986Z,1003.9
2017-09-30T05:39:17.437Z,1003.88
2017-09-30T05:41:33.357Z,1003.9
2017-09-30T05:42:13.928Z,1003.87
2017-09-30T05:42:54.469Z,1003.87
2017-09-30T05:43:35.059Z,1003.86
2017-09-30T05:44:15.626Z,1003.85
2017-09-30T05:44:56.236Z,1003.81
2017-09-30T05:45:36.787Z,1003.82
2017-09-30T05:46:17.326Z,1003.84
2017-09-30T05:46:57.840Z,1003.83
2017-09-30T05:47:38.447Z,1003.78
2017-09-30T05:48:18.994Z,1003.82
2017-09-30T05:48:59.539Z,1003.8
2017-09-30T05:49:40.121Z,1003.83
2017-09-30T05:50:20.667Z,1003.83
2017-09-30T05:51:01.207Z,1003.84
2017-09-30T05:51:41.738Z,1003.8
2017-09-30T05:52:22.406Z,1003.83
2017-09-30T05:53:02.849Z,1003.82
2017-09-30T05:53:45.326Z,1003.82
2017-09-30T05:54:25.944Z,1003.81
2017-09-30T05:55:06.538Z,1003.81
2017-09-30T05:55:47.113Z,1003.81
2017-09-30T05:56:27.653Z,1003.8
2017-09-30T05:57:08.213Z,1003.79
2017-09-30T05:57:48.726Z,1003.77
2017-09-30T05:58:29.315Z,1003.78
2017-09-30T05:59:10.041Z,1003.81
2017-09-30T05:59:50.625Z,1003.8
2017-09-30T06:00:31.218Z,1003.84
2017-09-30T06:01:11.840Z,1003.82
2017-09-30T06:01:52.449Z,1003.86
2017-09-30T06:02:33.063Z,1003.8
2017-09-30T06:03:13.582Z,1003.82
2017-09-30T06:03:54.201Z,1003.82
2017-09-30T06:04:35.148Z,1003.83
2017-09-30T06:06:33.909Z,1003.82
2017-09-30T06:07:14.505Z,1003.84
2017-09-30T06:07:55.085Z,1003.83
2017-09-30T06:08:35.592Z,1003.83
2017-09-30T06:09:16.149Z,1003.82
2017-09-30T06:09:56.656Z,1003.88
2017-09-30T06:10:37.181Z,1003.84
2017-09-30T06:11:17.735Z,1003.83
2017-09-30T06:11:58.275Z,1003.86
2017-09-30T06:12:38.771Z,1003.85
2017-09-30T06:13:19.346Z,1003.87
2017-09-30T06:13:59.914Z,1003.83
2017-09-30T06:14:40.401Z,1003.82
2017-09-30T06:15:20.972Z,1003.77
2017-09-30T06:16:01.515Z,1003.79
2017-09-30T06:16:42.046Z,1003.79
2017-09-30T06:17:22.589Z,1003.79
2017-09-30T06:18:03.178Z,1003.79
2017-09-30T06:18:43.695Z,1003.82
2017-09-30T06:19:24.191Z,1003.81
2017-09-30T06:20:05.489Z,1003.85
2017-09-30T06:20:46.044Z,1003.83
2017-09-30T06:21:26.588Z,1003.83
2017-09-30T06:22:07.120Z,1003.8
2017-09-30T06:22:47.660Z,1003.83
2017-09-30T06:23:28.169Z,1003.87
2017-09-30T06:24:08.789Z,1003.85
2017-09-30T06:24:49.500Z,1003.84
2017-09-30T06:25:29.962Z,1003.85
2017-09-30T06:26:10.489Z,1003.84
2017-09-30T06:26:51.026Z,1003.84
2017-09-30T06:27:32.330Z,1003.89
2017-09-30T06:28:12.844Z,1003.91
2017-09-30T06:28:53.373Z,1003.9
2017-09-30T06:29:34.271Z,1003.92
2017-09-30T06:30:14.856Z,1003.94
2017-09-30T06:30:55.466Z,1003.92
2017-09-30T06:31:35.953Z,1003.92
2017-09-30T06:32:16.444Z,1003.88
2017-09-30T06:32:57.010Z,1003.92
2017-09-30T06:33:37.515Z,1003.87
2017-09-30T06:34:18.045Z,1003.87
2017-09-30T06:34:58.621Z,1003.89
2017-09-30T06:35:39.104Z,1003.87
2017-09-30T06:36:19.687Z,1003.88
2017-09-30T06:37:00.464Z,1003.85
2017-09-30T06:37:40.989Z,1003.86
2017-09-30T06:38:21.587Z,1003.86
2017-09-30T06:39:02.133Z,1003.82
2017-09-30T06:39:42.599Z,1003.83
2017-09-30T06:40:23.203Z,1003.87
2017-09-30T06:41:03.736Z,1003.82
2017-09-30T06:41:44.318Z,1003.8
2017-09-30T06:42:24.888Z,1003.83
2017-09-30T06:43:05.759Z,1003.84
2017-09-30T06:43:46.289Z,1003.87
2017-09-30T06:44:26.839Z,1003.87
2017-09-30T06:45:07.400Z,1003.88
2017-09-30T06:45:47.953Z,1003.9
2017-09-30T06:46:28.699Z,1003.88
2017-09-30T06:47:09.362Z,1003.9
2017-09-30T06:47:49.981Z,1003.91
2017-09-30T06:48:30.558Z,1003.88
2017-09-30T06:49:11.065Z,1003.89
2017-09-30T06:49:51.695Z,1003.92
2017-09-30T06:50:32.120Z,1003.91
2017-09-30T06:51:12.708Z,1003.89
2017-09-30T06:51:53.473Z,1003.92
2017-09-30T06:52:34.081Z,1003.93
2017-09-30T06:53:14.645Z,1003.94
2017-09-30T06:53:55.185Z,1003.93
2017-09-30T06:54:35.694Z,1003.88
2017-09-30T06:55:24.913Z,1003.85
2017-09-30T06:56:14.883Z,1003.85
2017-09-30T06:56:56.349Z,1003.87
2017-09-30T06:57:36.909Z,1003.83
2017-09-30T06:58:18.355Z,1003.84
2017-09-30T06:58:58.092Z,1003.88
2017-09-30T06:59:38.622Z,1003.85
2017-09-30T07:00:19.244Z,1003.91
2017-09-30T07:00:59.823Z,1003.91
2017-09-30T07:01:40.359Z,1003.87
2017-09-30T07:02:20.868Z,1003.87
2017-09-30T07:03:01.458Z,1003.87
2017-09-30T07:03:41.952Z,1003.84
2017-09-30T07:04:22.519Z,1003.81
2017-09-30T07:05:03.061Z,1003.81
2017-09-30T07:05:43.648Z,1003.79
2017-09-30T07:06:24.167Z,1003.87
2017-09-30T07:07:04.721Z,1003.83
2017-09-30T07:07:45.278Z,1003.81
2017-09-30T07:08:25.861Z,1003.8
2017-09-30T07:09:06.442Z,1003.8
2017-09-30T07:09:46.967Z,1003.78
2017-09-30T07:10:27.498Z,1003.84
2017-09-30T07:11:08.045Z,1003.82
2017-09-30T07:11:48.591Z,1003.83
2017-09-30T07:12:29.155Z,1003.88
2017-09-30T07:13:09.792Z,1003.85
2017-09-30T07:13:50.336Z,1003.87
2017-09-30T07:14:30.850Z,1003.85
2017-09-30T07:15:11.428Z,1003.82
2017-09-30T07:15:51.967Z,1003.88
2017-09-30T07:16:32.490Z,1003.85
2017-09-30T07:17:13.060Z,1003.85
2017-09-30T07:17:54.483Z,1003.85
2017-09-30T07:18:35.056Z,1003.87
2017-09-30T07:19:15.556Z,1003.84
2017-09-30T07:19:56.119Z,1003.89
2017-09-30T07:20:36.738Z,1003.87
2017-09-30T07:21:17.238Z,1003.87
2017-09-30T07:21:57.822Z,1003.89
2017-09-30T07:22:38.346Z,1003.88
2017-09-30T07:23:18.892Z,1003.87
2017-09-30T07:23:59.471Z,1003.89
2017-09-30T07:24:40.039Z,1003.91
2017-09-30T07:25:20.608Z,1003.95
2017-09-30T07:27:33.874Z,1003.99
2017-09-30T07:28:14.486Z,1003.93
2017-09-30T07:28:55.016Z,1003.95
2017-09-30T07:29:35.582Z,1003.96
2017-09-30T07:30:16.116Z,1003.98
2017-09-30T07:30:56.658Z,1003.97
2017-09-30T07:31:37.206Z,1003.95
2017-09-30T07:32:17.784Z,1003.99
2017-09-30T07:32:58.238Z,1004.01
2017-09-30T07:33:38.782Z,1004.01
2017-09-30T07:34:19.388Z,1003.99
2017-09-30T07:34:59.899Z,1004
2017-09-30T07:35:40.670Z,1004
2017-09-30T07:36:21.208Z,1003.97
2017-09-30T07:37:01.824Z,1004
2017-09-30T07:37:42.294Z,1004.02
2017-09-30T07:38:22.847Z,1003.99
2017-09-30T07:39:03.402Z,1004.01
2017-09-30T07:39:43.951Z,1004.03
2017-09-30T07:40:24.464Z,1004.01
2017-09-30T07:41:05.003Z,1004.01
2017-09-30T07:41:45.587Z,1003.98
2017-09-30T07:42:26.181Z,1003.95
2017-09-30T07:43:06.707Z,1003.97
2017-09-30T07:43:47.344Z,1003.94
2017-09-30T07:44:27.805Z,1003.97
2017-09-30T07:45:08.351Z,1003.97
2017-09-30T07:45:48.885Z,1004.01
2017-09-30T07:46:29.439Z,1003.96
2017-09-30T07:47:09.967Z,1004.01
2017-09-30T07:47:50.534Z,1003.99
2017-09-30T07:48:31.218Z,1003.98
2017-09-30T07:49:11.798Z,1004.01
2017-09-30T07:49:52.316Z,1004
2017-09-30T07:50:32.886Z,1003.94
2017-09-30T07:51:13.421Z,1003.97
2017-09-30T07:51:53.992Z,1003.94
2017-09-30T07:52:34.533Z,1003.92
2017-09-30T07:53:15.085Z,1003.92
2017-09-30T07:53:56.608Z,1003.93
2017-09-30T07:54:37.148Z,1003.92
2017-09-30T07:55:17.672Z,1003.9
2017-09-30T07:55:58.194Z,1003.88
2017-09-30T07:56:38.752Z,1003.93
2017-09-30T07:57:19.313Z,1003.9
2017-09-30T07:57:59.885Z,1003.93
2017-09-30T07:58:40.387Z,1003.89
2017-09-30T07:59:21.040Z,1003.88
2017-09-30T08:00:01.485Z,1003.83
2017-09-30T08:00:42.056Z,1003.82
2017-09-30T08:01:22.587Z,1003.82
2017-09-30T08:02:03.137Z,1003.87
2017-09-30T08:02:43.790Z,1003.81
2017-09-30T08:03:24.333Z,1003.83
2017-09-30T08:04:04.953Z,1003.75
2017-09-30T08:04:45.511Z,1003.8
2017-09-30T08:05:26.130Z,1003.77
2017-09-30T08:06:06.693Z,1003.78
2017-09-30T08:06:47.273Z,1003.77
2017-09-30T08:07:27.761Z,1003.75
2017-09-30T08:08:08.339Z,1003.77
2017-09-30T08:08:48.882Z,1003.78
2017-09-30T08:09:29.442Z,1003.81
2017-09-30T08:10:10.031Z,1003.8
2017-09-30T08:10:50.592Z,1003.78
2017-09-30T08:11:31.165Z,1003.82
2017-09-30T08:12:11.742Z,1003.81
2017-09-30T08:12:52.278Z,1003.82
2017-09-30T08:13:32.856Z,1003.86
2017-09-30T08:14:13.541Z,1003.79
2017-09-30T08:14:54.051Z,1003.8
2017-09-30T08:15:34.615Z,1003.76
2017-09-30T08:16:15.145Z,1003.77
2017-09-30T08:16:55.715Z,1003.77
2017-09-30T08:17:36.261Z,1003.76
2017-09-30T08:18:16.749Z,1003.78
2017-09-30T08:18:57.313Z,1003.81
2017-09-30T08:19:37.841Z,1003.81
2017-09-30T08:20:18.430Z,1003.79
2017-09-30T08:20:58.946Z,1003.77
2017-09-30T08:21:39.494Z,1003.78
2017-09-30T08:22:20.058Z,1003.76
2017-09-30T08:23:00.600Z,1003.73
2017-09-30T08:23:41.142Z,1003.75
2017-09-30T08:24:21.994Z,1003.68